sensor_id;sensor_type;location;lat;lon;timestamp;P1;durP1;ratioP1;P2;durP2;ratioP2
17235;SDS011;8734;59.272;17.780;2023-09-19T00:00:39;16.83;;;6.23;;
17235;SDS011;8734;59.272;17.780;2023-09-19T00:03:08;20.13;;;6.53;;
17235;SDS011;8734;59.272;17.780;2023-09-19T00:05:38;16.37;;;6.87;;
17235;SDS011;8734;59.272;17.780;2023-09-19T00:08:12;29.47;;;7.10;;
17235;SDS011;8734;59.272;17.780;2023-09-19T00:10:41;21.97;;;6.77;;
17235;SDS011;8734;59.272;17.780;2023-09-19T00:13:10;17.00;;;7.20;;
17235;SDS011;8734;59.272;17.780;2023-09-19T00:15:43;18.50;;;7.30;;
17235;SDS011;8734;59.272;17.780;2023-09-19T00:18:16;23.77;;;7.93;;
17235;SDS011;8734;59.272;17.780;2023-09-19T00:20:45;22.17;;;7.57;;
17235;SDS011;8734;59.272;17.780;2023-09-19T00:23:16;19.93;;;7.83;;
17235;SDS011;8734;59.272;17.780;2023-09-19T00:25:46;23.63;;;7.63;;
17235;SDS011;8734;59.272;17.780;2023-09-19T00:28:15;21.47;;;8.47;;
17235;SDS011;8734;59.272;17.780;2023-09-19T00:30:45;17.27;;;7.90;;
17235;SDS011;8734;59.272;17.780;2023-09-19T00:33:17;17.83;;;8.30;;
17235;SDS011;8734;59.272;17.780;2023-09-19T00:35:49;19.53;;;8.13;;
17235;SDS011;8734;59.272;17.780;2023-09-19T00:38:18;19.50;;;8.40;;
17235;SDS011;8734;59.272;17.780;2023-09-19T00:40:49;22.77;;;8.50;;
17235;SDS011;8734;59.272;17.780;2023-09-19T00:43:18;27.70;;;7.70;;
17235;SDS011;8734;59.272;17.780;2023-09-19T00:45:49;23.87;;;8.50;;
17235;SDS011;8734;59.272;17.780;2023-09-19T00:48:19;23.97;;;9.40;;
17235;SDS011;8734;59.272;17.780;2023-09-19T00:50:49;35.43;;;9.70;;
17235;SDS011;8734;59.272;17.780;2023-09-19T00:53:20;21.57;;;8.83;;
17235;SDS011;8734;59.272;17.780;2023-09-19T00:55:50;23.33;;;9.10;;
17235;SDS011;8734;59.272;17.780;2023-09-19T00:58:19;27.30;;;9.40;;
17235;SDS011;8734;59.272;17.780;2023-09-19T01:00:49;48.70;;;9.20;;
17235;SDS011;8734;59.272;17.780;2023-09-19T01:03:19;21.20;;;8.87;;
17235;SDS011;8734;59.272;17.780;2023-09-19T01:05:49;25.13;;;10.00;;
17235;SDS011;8734;59.272;17.780;2023-09-19T01:08:18;20.10;;;9.50;;
17235;SDS011;8734;59.272;17.780;2023-09-19T01:10:49;21.67;;;9.50;;
17235;SDS011;8734;59.272;17.780;2023-09-19T01:13:25;21.83;;;9.70;;
17235;SDS011;8734;59.272;17.780;2023-09-19T01:16:03;23.23;;;9.67;;
17235;SDS011;8734;59.272;17.780;2023-09-19T01:18:43;21.37;;;10.40;;
17235;SDS011;8734;59.272;17.780;2023-09-19T01:21:21;19.43;;;10.10;;
17235;SDS011;8734;59.272;17.780;2023-09-19T01:27:02;24.27;;;9.87;;
17235;SDS011;8734;59.272;17.780;2023-09-19T01:29:46;29.30;;;11.07;;
17235;SDS011;8734;59.272;17.780;2023-09-19T01:32:19;22.23;;;10.57;;
17235;SDS011;8734;59.272;17.780;2023-09-19T01:34:53;28.87;;;10.80;;
17235;SDS011;8734;59.272;17.780;2023-09-19T01:37:24;27.53;;;10.83;;
17235;SDS011;8734;59.272;17.780;2023-09-19T01:39:55;30.17;;;10.73;;
17235;SDS011;8734;59.272;17.780;2023-09-19T01:42:27;25.00;;;12.30;;
17235;SDS011;8734;59.272;17.780;2023-09-19T01:45:13;29.03;;;11.53;;
17235;SDS011;8734;59.272;17.780;2023-09-19T01:47:50;22.57;;;11.47;;
17235;SDS011;8734;59.272;17.780;2023-09-19T01:50:24;22.10;;;11.23;;
17235;SDS011;8734;59.272;17.780;2023-09-19T01:52:59;21.17;;;11.90;;
17235;SDS011;8734;59.272;17.780;2023-09-19T01:55:36;26.70;;;12.40;;
17235;SDS011;8734;59.272;17.780;2023-09-19T01:58:13;29.60;;;12.10;;
17235;SDS011;8734;59.272;17.780;2023-09-19T02:00:44;25.90;;;12.23;;
17235;SDS011;8734;59.272;17.780;2023-09-19T02:03:15;20.20;;;11.03;;
17235;SDS011;8734;59.272;17.780;2023-09-19T02:05:47;29.03;;;12.57;;
17235;SDS011;8734;59.272;17.780;2023-09-19T02:08:18;29.43;;;12.97;;
17235;SDS011;8734;59.272;17.780;2023-09-19T02:10:47;29.53;;;13.10;;
17235;SDS011;8734;59.272;17.780;2023-09-19T02:13:15;27.43;;;13.50;;
17235;SDS011;8734;59.272;17.780;2023-09-19T02:15:45;27.50;;;12.87;;
17235;SDS011;8734;59.272;17.780;2023-09-19T02:18:15;32.20;;;14.43;;
17235;SDS011;8734;59.272;17.780;2023-09-19T02:20:44;28.63;;;15.10;;
17235;SDS011;8734;59.272;17.780;2023-09-19T02:23:14;36.03;;;14.43;;
17235;SDS011;8734;59.272;17.780;2023-09-19T02:25:51;28.33;;;13.83;;
17235;SDS011;8734;59.272;17.780;2023-09-19T02:28:20;31.57;;;13.53;;
17235;SDS011;8734;59.272;17.780;2023-09-19T02:30:49;31.67;;;15.43;;
17235;SDS011;8734;59.272;17.780;2023-09-19T02:33:19;26.57;;;13.03;;
17235;SDS011;8734;59.272;17.780;2023-09-19T02:35:47;32.80;;;15.93;;
17235;SDS011;8734;59.272;17.780;2023-09-19T02:38:15;37.97;;;15.00;;
17235;SDS011;8734;59.272;17.780;2023-09-19T02:40:47;25.27;;;14.17;;
17235;SDS011;8734;59.272;17.780;2023-09-19T02:43:15;30.80;;;15.27;;
17235;SDS011;8734;59.272;17.780;2023-09-19T02:45:44;34.10;;;16.20;;
17235;SDS011;8734;59.272;17.780;2023-09-19T02:48:16;37.33;;;14.37;;
17235;SDS011;8734;59.272;17.780;2023-09-19T02:50:46;33.53;;;15.90;;
17235;SDS011;8734;59.272;17.780;2023-09-19T02:53:17;27.70;;;15.33;;
17235;SDS011;8734;59.272;17.780;2023-09-19T02:55:46;33.00;;;14.70;;
17235;SDS011;8734;59.272;17.780;2023-09-19T02:58:15;33.00;;;15.60;;
17235;SDS011;8734;59.272;17.780;2023-09-19T03:00:45;40.87;;;15.63;;
17235;SDS011;8734;59.272;17.780;2023-09-19T03:03:14;28.10;;;15.30;;
17235;SDS011;8734;59.272;17.780;2023-09-19T03:05:43;30.00;;;15.40;;
17235;SDS011;8734;59.272;17.780;2023-09-19T03:08:14;34.17;;;16.00;;
17235;SDS011;8734;59.272;17.780;2023-09-19T03:10:45;27.77;;;15.80;;
17235;SDS011;8734;59.272;17.780;2023-09-19T03:13:14;34.27;;;15.57;;
17235;SDS011;8734;59.272;17.780;2023-09-19T03:15:42;34.50;;;16.53;;
17235;SDS011;8734;59.272;17.780;2023-09-19T03:18:13;31.27;;;16.37;;
17235;SDS011;8734;59.272;17.780;2023-09-19T03:20:42;32.50;;;16.63;;
17235;SDS011;8734;59.272;17.780;2023-09-19T03:23:10;32.37;;;17.60;;
17235;SDS011;8734;59.272;17.780;2023-09-19T03:25:41;41.27;;;17.00;;
17235;SDS011;8734;59.272;17.780;2023-09-19T03:28:09;34.27;;;17.13;;
17235;SDS011;8734;59.272;17.780;2023-09-19T03:30:38;35.53;;;18.17;;
17235;SDS011;8734;59.272;17.780;2023-09-19T03:33:06;39.37;;;17.53;;
17235;SDS011;8734;59.272;17.780;2023-09-19T03:35:39;34.77;;;16.63;;
17235;SDS011;8734;59.272;17.780;2023-09-19T03:38:07;35.57;;;16.60;;
17235;SDS011;8734;59.272;17.780;2023-09-19T03:40:35;35.00;;;17.00;;
17235;SDS011;8734;59.272;17.780;2023-09-19T03:43:05;34.97;;;15.70;;
17235;SDS011;8734;59.272;17.780;2023-09-19T03:45:34;36.60;;;15.90;;
17235;SDS011;8734;59.272;17.780;2023-09-19T03:48:06;27.13;;;15.40;;
17235;SDS011;8734;59.272;17.780;2023-09-19T03:50:36;34.53;;;17.40;;
17235;SDS011;8734;59.272;17.780;2023-09-19T03:53:04;35.23;;;16.00;;
17235;SDS011;8734;59.272;17.780;2023-09-19T03:55:33;29.57;;;15.53;;
17235;SDS011;8734;59.272;17.780;2023-09-19T03:58:02;37.10;;;15.43;;
17235;SDS011;8734;59.272;17.780;2023-09-19T04:00:32;29.80;;;16.67;;
17235;SDS011;8734;59.272;17.780;2023-09-19T04:03:05;39.43;;;17.40;;
17235;SDS011;8734;59.272;17.780;2023-09-19T04:05:34;39.37;;;17.57;;
17235;SDS011;8734;59.272;17.780;2023-09-19T04:08:02;40.23;;;17.37;;
17235;SDS011;8734;59.272;17.780;2023-09-19T04:10:31;36.50;;;17.53;;
17235;SDS011;8734;59.272;17.780;2023-09-19T04:12:59;33.63;;;16.67;;
17235;SDS011;8734;59.272;17.780;2023-09-19T04:15:28;36.00;;;17.40;;
17235;SDS011;8734;59.272;17.780;2023-09-19T04:17:57;40.97;;;17.97;;
17235;SDS011;8734;59.272;17.780;2023-09-19T04:20:26;42.50;;;19.07;;
17235;SDS011;8734;59.272;17.780;2023-09-19T04:22:54;34.57;;;15.00;;
17235;SDS011;8734;59.272;17.780;2023-09-19T04:25:23;30.07;;;16.70;;
17235;SDS011;8734;59.272;17.780;2023-09-19T04:27:54;38.30;;;18.37;;
17235;SDS011;8734;59.272;17.780;2023-09-19T04:30:22;30.17;;;17.13;;
17235;SDS011;8734;59.272;17.780;2023-09-19T04:32:50;39.33;;;16.80;;
17235;SDS011;8734;59.272;17.780;2023-09-19T04:35:21;41.20;;;18.63;;
17235;SDS011;8734;59.272;17.780;2023-09-19T04:37:50;37.83;;;18.63;;
17235;SDS011;8734;59.272;17.780;2023-09-19T04:40:19;30.97;;;18.43;;
17235;SDS011;8734;59.272;17.780;2023-09-19T04:42:52;44.50;;;19.30;;
17235;SDS011;8734;59.272;17.780;2023-09-19T04:45:23;39.77;;;19.63;;
17235;SDS011;8734;59.272;17.780;2023-09-19T04:47:52;30.93;;;15.77;;
17235;SDS011;8734;59.272;17.780;2023-09-19T04:50:23;39.27;;;18.27;;
17235;SDS011;8734;59.272;17.780;2023-09-19T04:52:53;32.93;;;16.80;;
17235;SDS011;8734;59.272;17.780;2023-09-19T04:55:21;36.73;;;17.90;;
17235;SDS011;8734;59.272;17.780;2023-09-19T04:57:50;37.70;;;18.13;;
17235;SDS011;8734;59.272;17.780;2023-09-19T05:00:20;38.10;;;18.10;;
17235;SDS011;8734;59.272;17.780;2023-09-19T05:02:50;36.83;;;18.63;;
17235;SDS011;8734;59.272;17.780;2023-09-19T05:05:19;34.77;;;18.70;;
17235;SDS011;8734;59.272;17.780;2023-09-19T05:07:50;36.20;;;17.77;;
17235;SDS011;8734;59.272;17.780;2023-09-19T05:10:21;35.40;;;16.43;;
17235;SDS011;8734;59.272;17.780;2023-09-19T05:12:52;42.03;;;18.30;;
17235;SDS011;8734;59.272;17.780;2023-09-19T05:15:21;36.03;;;17.37;;
17235;SDS011;8734;59.272;17.780;2023-09-19T05:17:49;35.93;;;16.07;;
17235;SDS011;8734;59.272;17.780;2023-09-19T05:20:22;38.27;;;15.73;;
17235;SDS011;8734;59.272;17.780;2023-09-19T05:23:01;32.30;;;16.80;;
17235;SDS011;8734;59.272;17.780;2023-09-19T05:25:34;39.50;;;17.40;;
17235;SDS011;8734;59.272;17.780;2023-09-19T05:28:06;31.83;;;16.40;;
17235;SDS011;8734;59.272;17.780;2023-09-19T05:30:34;31.70;;;16.83;;
17235;SDS011;8734;59.272;17.780;2023-09-19T05:33:05;32.10;;;17.67;;
17235;SDS011;8734;59.272;17.780;2023-09-19T05:35:34;33.20;;;16.83;;
17235;SDS011;8734;59.272;17.780;2023-09-19T05:38:04;35.47;;;16.97;;
17235;SDS011;8734;59.272;17.780;2023-09-19T05:40:35;34.00;;;19.57;;
17235;SDS011;8734;59.272;17.780;2023-09-19T05:43:05;33.50;;;16.97;;
17235;SDS011;8734;59.272;17.780;2023-09-19T05:45:33;33.53;;;17.60;;
17235;SDS011;8734;59.272;17.780;2023-09-19T05:48:07;34.70;;;18.70;;
17235;SDS011;8734;59.272;17.780;2023-09-19T05:50:36;32.43;;;16.53;;
17235;SDS011;8734;59.272;17.780;2023-09-19T05:53:06;34.90;;;16.40;;
17235;SDS011;8734;59.272;17.780;2023-09-19T05:55:34;33.63;;;16.37;;
17235;SDS011;8734;59.272;17.780;2023-09-19T05:58:03;31.07;;;14.90;;
17235;SDS011;8734;59.272;17.780;2023-09-19T06:00:31;37.90;;;17.67;;
17235;SDS011;8734;59.272;17.780;2023-09-19T06:03:02;33.13;;;15.63;;
17235;SDS011;8734;59.272;17.780;2023-09-19T06:05:30;30.70;;;15.87;;
17235;SDS011;8734;59.272;17.780;2023-09-19T06:07:59;33.87;;;17.40;;
17235;SDS011;8734;59.272;17.780;2023-09-19T06:10:35;32.30;;;16.10;;
17235;SDS011;8734;59.272;17.780;2023-09-19T06:13:04;34.63;;;16.50;;
17235;SDS011;8734;59.272;17.780;2023-09-19T06:15:32;32.33;;;16.63;;
17235;SDS011;8734;59.272;17.780;2023-09-19T06:18:03;31.27;;;16.30;;
17235;SDS011;8734;59.272;17.780;2023-09-19T06:20:32;32.80;;;16.37;;
17235;SDS011;8734;59.272;17.780;2023-09-19T06:23:00;32.27;;;16.30;;
17235;SDS011;8734;59.272;17.780;2023-09-19T06:25:31;32.30;;;16.20;;
17235;SDS011;8734;59.272;17.780;2023-09-19T06:28:00;35.73;;;15.30;;
17235;SDS011;8734;59.272;17.780;2023-09-19T06:30:31;34.93;;;16.17;;
17235;SDS011;8734;59.272;17.780;2023-09-19T06:33:00;28.10;;;15.40;;
17235;SDS011;8734;59.272;17.780;2023-09-19T06:35:31;31.70;;;15.43;;
17235;SDS011;8734;59.272;17.780;2023-09-19T06:38:01;32.73;;;15.13;;
17235;SDS011;8734;59.272;17.780;2023-09-19T06:40:30;33.67;;;15.87;;
17235;SDS011;8734;59.272;17.780;2023-09-19T06:43:01;30.60;;;15.00;;
17235;SDS011;8734;59.272;17.780;2023-09-19T06:45:32;26.60;;;14.87;;
17235;SDS011;8734;59.272;17.780;2023-09-19T06:48:00;29.50;;;15.10;;
17235;SDS011;8734;59.272;17.780;2023-09-19T06:50:29;28.70;;;15.40;;
17235;SDS011;8734;59.272;17.780;2023-09-19T06:52:59;29.53;;;14.97;;
17235;SDS011;8734;59.272;17.780;2023-09-19T06:55:28;27.43;;;15.27;;
17235;SDS011;8734;59.272;17.780;2023-09-19T06:57:58;28.40;;;15.77;;
17235;SDS011;8734;59.272;17.780;2023-09-19T07:00:28;30.93;;;15.87;;
17235;SDS011;8734;59.272;17.780;2023-09-19T07:02:58;31.83;;;16.07;;
17235;SDS011;8734;59.272;17.780;2023-09-19T07:05:31;26.73;;;16.77;;
17235;SDS011;8734;59.272;17.780;2023-09-19T07:08:00;37.63;;;16.13;;
17235;SDS011;8734;59.272;17.780;2023-09-19T07:10:28;24.10;;;15.70;;
17235;SDS011;8734;59.272;17.780;2023-09-19T07:12:57;37.53;;;17.10;;
17235;SDS011;8734;59.272;17.780;2023-09-19T07:15:25;39.27;;;19.63;;
17235;SDS011;8734;59.272;17.780;2023-09-19T07:17:55;28.33;;;13.17;;
17235;SDS011;8734;59.272;17.780;2023-09-19T07:20:24;30.83;;;15.17;;
17235;SDS011;8734;59.272;17.780;2023-09-19T07:22:53;27.40;;;15.20;;
17235;SDS011;8734;59.272;17.780;2023-09-19T07:25:22;29.97;;;14.33;;
17235;SDS011;8734;59.272;17.780;2023-09-19T07:27:52;35.60;;;15.30;;
17235;SDS011;8734;59.272;17.780;2023-09-19T07:30:23;29.87;;;15.63;;
17235;SDS011;8734;59.272;17.780;2023-09-19T07:32:51;30.57;;;16.87;;
17235;SDS011;8734;59.272;17.780;2023-09-19T07:35:21;28.87;;;15.27;;
17235;SDS011;8734;59.272;17.780;2023-09-19T07:37:50;42.40;;;16.53;;
17235;SDS011;8734;59.272;17.780;2023-09-19T07:40:18;31.83;;;16.40;;
17235;SDS011;8734;59.272;17.780;2023-09-19T07:42:48;31.70;;;15.53;;
17235;SDS011;8734;59.272;17.780;2023-09-19T07:45:17;30.73;;;15.33;;
17235;SDS011;8734;59.272;17.780;2023-09-19T07:47:45;21.73;;;11.63;;
17235;SDS011;8734;59.272;17.780;2023-09-19T07:50:14;32.77;;;14.97;;
17235;SDS011;8734;59.272;17.780;2023-09-19T07:52:47;33.67;;;13.40;;
17235;SDS011;8734;59.272;17.780;2023-09-19T07:55:17;25.47;;;13.10;;
17235;SDS011;8734;59.272;17.780;2023-09-19T07:57:47;25.60;;;14.27;;
17235;SDS011;8734;59.272;17.780;2023-09-19T08:00:15;31.30;;;13.77;;
17235;SDS011;8734;59.272;17.780;2023-09-19T08:02:43;29.63;;;14.60;;
17235;SDS011;8734;59.272;17.780;2023-09-19T08:05:16;28.60;;;14.03;;
17235;SDS011;8734;59.272;17.780;2023-09-19T08:07:45;30.17;;;14.83;;
17235;SDS011;8734;59.272;17.780;2023-09-19T08:10:16;30.47;;;14.07;;
17235;SDS011;8734;59.272;17.780;2023-09-19T08:12:46;22.23;;;14.80;;
17235;SDS011;8734;59.272;17.780;2023-09-19T08:15:16;29.60;;;14.67;;
17235;SDS011;8734;59.272;17.780;2023-09-19T08:17:46;32.87;;;15.10;;
17235;SDS011;8734;59.272;17.780;2023-09-19T08:20:15;25.57;;;12.13;;
17235;SDS011;8734;59.272;17.780;2023-09-19T08:22:48;28.70;;;13.07;;
17235;SDS011;8734;59.272;17.780;2023-09-19T08:25:19;25.70;;;12.80;;
17235;SDS011;8734;59.272;17.780;2023-09-19T08:27:48;27.00;;;13.03;;
17235;SDS011;8734;59.272;17.780;2023-09-19T08:30:17;25.03;;;12.37;;
17235;SDS011;8734;59.272;17.780;2023-09-19T08:32:51;23.27;;;13.50;;
17235;SDS011;8734;59.272;17.780;2023-09-19T08:35:24;27.97;;;13.17;;
17235;SDS011;8734;59.272;17.780;2023-09-19T08:37:54;30.07;;;13.20;;
17235;SDS011;8734;59.272;17.780;2023-09-19T08:40:23;23.20;;;12.37;;
17235;SDS011;8734;59.272;17.780;2023-09-19T08:42:57;26.50;;;12.93;;
17235;SDS011;8734;59.272;17.780;2023-09-19T08:45:25;20.73;;;11.70;;
17235;SDS011;8734;59.272;17.780;2023-09-19T08:47:56;28.30;;;11.30;;
17235;SDS011;8734;59.272;17.780;2023-09-19T08:50:33;24.03;;;11.60;;
17235;SDS011;8734;59.272;17.780;2023-09-19T08:53:10;24.33;;;11.27;;
17235;SDS011;8734;59.272;17.780;2023-09-19T08:55:41;25.30;;;10.67;;
17235;SDS011;8734;59.272;17.780;2023-09-19T08:58:14;27.83;;;11.33;;
17235;SDS011;8734;59.272;17.780;2023-09-19T09:00:51;18.33;;;9.77;;
17235;SDS011;8734;59.272;17.780;2023-09-19T09:03:22;19.93;;;8.80;;
17235;SDS011;8734;59.272;17.780;2023-09-19T09:05:51;20.07;;;8.50;;
17235;SDS011;8734;59.272;17.780;2023-09-19T09:08:21;20.97;;;10.37;;
17235;SDS011;8734;59.272;17.780;2023-09-19T09:10:50;21.10;;;9.10;;
17235;SDS011;8734;59.272;17.780;2023-09-19T09:13:19;20.97;;;9.43;;
17235;SDS011;8734;59.272;17.780;2023-09-19T09:15:48;20.30;;;8.60;;
17235;SDS011;8734;59.272;17.780;2023-09-19T09:18:17;20.17;;;8.43;;
17235;SDS011;8734;59.272;17.780;2023-09-19T09:20:45;22.87;;;8.50;;
17235;SDS011;8734;59.272;17.780;2023-09-19T09:23:15;17.07;;;8.77;;
17235;SDS011;8734;59.272;17.780;2023-09-19T09:25:51;11.27;;;7.13;;
17235;SDS011;8734;59.272;17.780;2023-09-19T09:28:23;17.10;;;7.60;;
17235;SDS011;8734;59.272;17.780;2023-09-19T09:30:54;15.17;;;8.13;;
17235;SDS011;8734;59.272;17.780;2023-09-19T09:33:24;14.20;;;7.23;;
17235;SDS011;8734;59.272;17.780;2023-09-19T09:35:55;12.80;;;7.87;;
17235;SDS011;8734;59.272;17.780;2023-09-19T09:38:27;16.03;;;8.50;;
17235;SDS011;8734;59.272;17.780;2023-09-19T09:41:00;19.67;;;7.50;;
17235;SDS011;8734;59.272;17.780;2023-09-19T09:43:33;18.30;;;7.17;;
17235;SDS011;8734;59.272;17.780;2023-09-19T09:46:10;14.60;;;7.20;;
17235;SDS011;8734;59.272;17.780;2023-09-19T09:48:57;13.87;;;7.40;;
17235;SDS011;8734;59.272;17.780;2023-09-19T09:51:43;12.53;;;5.90;;
17235;SDS011;8734;59.272;17.780;2023-09-19T09:54:15;13.43;;;6.80;;
17235;SDS011;8734;59.272;17.780;2023-09-19T09:56:54;14.57;;;7.03;;
17235;SDS011;8734;59.272;17.780;2023-09-19T09:59:44;13.10;;;6.33;;
17235;SDS011;8734;59.272;17.780;2023-09-19T10:02:14;9.57;;;6.53;;
17235;SDS011;8734;59.272;17.780;2023-09-19T10:04:49;10.43;;;6.17;;
17235;SDS011;8734;59.272;17.780;2023-09-19T10:07:26;8.83;;;5.53;;
17235;SDS011;8734;59.272;17.780;2023-09-19T10:09:59;12.23;;;5.90;;
17235;SDS011;8734;59.272;17.780;2023-09-19T10:12:41;11.93;;;5.07;;
17235;SDS011;8734;59.272;17.780;2023-09-19T10:15:12;9.03;;;5.13;;
17235;SDS011;8734;59.272;17.780;2023-09-19T10:17:44;11.70;;;4.17;;
17235;SDS011;8734;59.272;17.780;2023-09-19T10:20:13;10.10;;;5.00;;
17235;SDS011;8734;59.272;17.780;2023-09-19T10:22:59;8.00;;;4.43;;
17235;SDS011;8734;59.272;17.780;2023-09-19T10:25:28;10.37;;;5.40;;
17235;SDS011;8734;59.272;17.780;2023-09-19T10:28:00;7.67;;;4.27;;
17235;SDS011;8734;59.272;17.780;2023-09-19T10:30:31;7.93;;;4.47;;
17235;SDS011;8734;59.272;17.780;2023-09-19T10:33:01;12.40;;;4.73;;
17235;SDS011;8734;59.272;17.780;2023-09-19T10:35:32;10.00;;;4.20;;
17235;SDS011;8734;59.272;17.780;2023-09-19T10:38:01;10.30;;;4.00;;
17235;SDS011;8734;59.272;17.780;2023-09-19T10:40:32;8.40;;;4.20;;
17235;SDS011;8734;59.272;17.780;2023-09-19T10:43:04;7.27;;;4.47;;
17235;SDS011;8734;59.272;17.780;2023-09-19T10:45:33;7.70;;;3.90;;
17235;SDS011;8734;59.272;17.780;2023-09-19T10:48:05;7.43;;;4.17;;
17235;SDS011;8734;59.272;17.780;2023-09-19T10:50:35;7.87;;;4.20;;
17235;SDS011;8734;59.272;17.780;2023-09-19T10:53:13;8.03;;;4.63;;
17235;SDS011;8734;59.272;17.780;2023-09-19T10:55:48;12.67;;;4.57;;
17235;SDS011;8734;59.272;17.780;2023-09-19T10:58:27;8.33;;;4.20;;
17235;SDS011;8734;59.272;17.780;2023-09-19T11:00:57;6.47;;;3.90;;
17235;SDS011;8734;59.272;17.780;2023-09-19T11:03:39;8.93;;;4.53;;
17235;SDS011;8734;59.272;17.780;2023-09-19T11:06:11;10.27;;;3.83;;
17235;SDS011;8734;59.272;17.780;2023-09-19T11:08:56;6.13;;;3.47;;
17235;SDS011;8734;59.272;17.780;2023-09-19T11:11:49;8.20;;;3.43;;
17235;SDS011;8734;59.272;17.780;2023-09-19T11:14:32;7.17;;;3.30;;
17235;SDS011;8734;59.272;17.780;2023-09-19T11:17:30;5.30;;;2.60;;
17235;SDS011;8734;59.272;17.780;2023-09-19T11:23:17;3.60;;;2.00;;
17235;SDS011;8734;59.272;17.780;2023-09-19T11:25:49;3.20;;;1.40;;
17235;SDS011;8734;59.272;17.780;2023-09-19T11:28:32;6.83;;;1.17;;
17235;SDS011;8734;59.272;17.780;2023-09-19T11:34:43;5.87;;;1.47;;
17235;SDS011;8734;59.272;17.780;2023-09-19T11:40:45;6.07;;;1.67;;
17235;SDS011;8734;59.272;17.780;2023-09-19T11:43:28;2.33;;;1.40;;
17235;SDS011;8734;59.272;17.780;2023-09-19T11:46:04;4.17;;;1.30;;
17235;SDS011;8734;59.272;17.780;2023-09-19T11:48:40;4.53;;;1.50;;
17235;SDS011;8734;59.272;17.780;2023-09-19T11:51:24;1.73;;;1.20;;
17235;SDS011;8734;59.272;17.780;2023-09-19T11:53:55;2.70;;;1.50;;
17235;SDS011;8734;59.272;17.780;2023-09-19T11:56:26;12.37;;;1.77;;
17235;SDS011;8734;59.272;17.780;2023-09-19T11:58:56;3.03;;;1.30;;
17235;SDS011;8734;59.272;17.780;2023-09-19T12:01:28;3.33;;;1.30;;
17235;SDS011;8734;59.272;17.780;2023-09-19T12:03:59;5.10;;;1.30;;
17235;SDS011;8734;59.272;17.780;2023-09-19T12:06:30;10.77;;;1.73;;
17235;SDS011;8734;59.272;17.780;2023-09-19T12:08:59;4.07;;;1.20;;
17235;SDS011;8734;59.272;17.780;2023-09-19T12:11:29;3.47;;;1.10;;
17235;SDS011;8734;59.272;17.780;2023-09-19T12:14:01;3.00;;;1.30;;
17235;SDS011;8734;59.272;17.780;2023-09-19T12:16:31;5.97;;;1.30;;
17235;SDS011;8734;59.272;17.780;2023-09-19T12:21:57;7.47;;;1.10;;
17235;SDS011;8734;59.272;17.780;2023-09-19T12:24:31;3.83;;;1.37;;
17235;SDS011;8734;59.272;17.780;2023-09-19T12:27:04;8.57;;;1.20;;
17235;SDS011;8734;59.272;17.780;2023-09-19T12:29:41;5.07;;;1.53;;
17235;SDS011;8734;59.272;17.780;2023-09-19T12:32:11;5.17;;;1.47;;
17235;SDS011;8734;59.272;17.780;2023-09-19T12:34:49;5.57;;;1.30;;
17235;SDS011;8734;59.272;17.780;2023-09-19T12:37:21;4.20;;;1.33;;
17235;SDS011;8734;59.272;17.780;2023-09-19T12:40:02;3.17;;;1.60;;
17235;SDS011;8734;59.272;17.780;2023-09-19T12:42:41;2.90;;;1.00;;
17235;SDS011;8734;59.272;17.780;2023-09-19T12:45:11;4.53;;;1.47;;
17235;SDS011;8734;59.272;17.780;2023-09-19T12:47:52;5.40;;;1.20;;
17235;SDS011;8734;59.272;17.780;2023-09-19T12:51:01;5.20;;;1.50;;
17235;SDS011;8734;59.272;17.780;2023-09-19T12:53:35;9.00;;;1.63;;
17235;SDS011;8734;59.272;17.780;2023-09-19T12:56:08;5.83;;;1.60;;
17235;SDS011;8734;59.272;17.780;2023-09-19T12:58:47;7.00;;;1.70;;
17235;SDS011;8734;59.272;17.780;2023-09-19T13:01:17;4.33;;;1.67;;
17235;SDS011;8734;59.272;17.780;2023-09-19T13:03:45;4.70;;;1.47;;
17235;SDS011;8734;59.272;17.780;2023-09-19T13:06:37;7.77;;;1.97;;
17235;SDS011;8734;59.272;17.780;2023-09-19T13:09:11;4.87;;;1.80;;
17235;SDS011;8734;59.272;17.780;2023-09-19T13:11:41;4.17;;;1.57;;
17235;SDS011;8734;59.272;17.780;2023-09-19T13:14:14;3.83;;;1.77;;
17235;SDS011;8734;59.272;17.780;2023-09-19T13:16:57;5.77;;;1.40;;
17235;SDS011;8734;59.272;17.780;2023-09-19T13:19:39;3.93;;;1.57;;
17235;SDS011;8734;59.272;17.780;2023-09-19T13:25:09;8.20;;;1.77;;
17235;SDS011;8734;59.272;17.780;2023-09-19T13:27:45;10.00;;;2.47;;
17235;SDS011;8734;59.272;17.780;2023-09-19T13:30:18;3.30;;;1.23;;
17235;SDS011;8734;59.272;17.780;2023-09-19T13:32:47;6.47;;;2.00;;
17235;SDS011;8734;59.272;17.780;2023-09-19T13:35:15;10.33;;;1.70;;
17235;SDS011;8734;59.272;17.780;2023-09-19T13:37:44;5.40;;;1.50;;
17235;SDS011;8734;59.272;17.780;2023-09-19T13:40:17;6.93;;;1.27;;
17235;SDS011;8734;59.272;17.780;2023-09-19T13:42:45;4.77;;;1.67;;
17235;SDS011;8734;59.272;17.780;2023-09-19T13:45:13;8.03;;;1.80;;
17235;SDS011;8734;59.272;17.780;2023-09-19T13:47:44;6.47;;;2.20;;
17235;SDS011;8734;59.272;17.780;2023-09-19T13:50:12;5.47;;;1.47;;
17235;SDS011;8734;59.272;17.780;2023-09-19T13:52:41;6.87;;;1.50;;
17235;SDS011;8734;59.272;17.780;2023-09-19T13:55:09;4.50;;;1.80;;
17235;SDS011;8734;59.272;17.780;2023-09-19T13:57:42;13.27;;;1.90;;
17235;SDS011;8734;59.272;17.780;2023-09-19T14:00:11;9.93;;;1.70;;
17235;SDS011;8734;59.272;17.780;2023-09-19T14:02:42;2.57;;;1.33;;
17235;SDS011;8734;59.272;17.780;2023-09-19T14:05:13;2.57;;;1.17;;
17235;SDS011;8734;59.272;17.780;2023-09-19T14:07:43;3.43;;;1.30;;
17235;SDS011;8734;59.272;17.780;2023-09-19T14:10:12;6.03;;;1.50;;
17235;SDS011;8734;59.272;17.780;2023-09-19T14:12:40;18.03;;;3.03;;
17235;SDS011;8734;59.272;17.780;2023-09-19T14:15:14;4.83;;;1.43;;
17235;SDS011;8734;59.272;17.780;2023-09-19T14:17:42;10.33;;;1.10;;
17235;SDS011;8734;59.272;17.780;2023-09-19T14:20:12;6.77;;;1.47;;
17235;SDS011;8734;59.272;17.780;2023-09-19T14:22:40;5.93;;;1.77;;
17235;SDS011;8734;59.272;17.780;2023-09-19T14:25:09;4.27;;;1.20;;
17235;SDS011;8734;59.272;17.780;2023-09-19T14:27:37;4.87;;;1.00;;
17235;SDS011;8734;59.272;17.780;2023-09-19T14:30:08;4.70;;;1.43;;
17235;SDS011;8734;59.272;17.780;2023-09-19T14:32:37;3.83;;;1.20;;
17235;SDS011;8734;59.272;17.780;2023-09-19T14:35:06;6.50;;;1.20;;
17235;SDS011;8734;59.272;17.780;2023-09-19T14:37:36;9.83;;;1.40;;
17235;SDS011;8734;59.272;17.780;2023-09-19T14:40:06;4.10;;;1.10;;
17235;SDS011;8734;59.272;17.780;2023-09-19T14:42:38;4.77;;;1.10;;
17235;SDS011;8734;59.272;17.780;2023-09-19T14:45:09;4.30;;;1.50;;
17235;SDS011;8734;59.272;17.780;2023-09-19T14:47:38;6.17;;;1.30;;
17235;SDS011;8734;59.272;17.780;2023-09-19T14:50:06;5.50;;;1.20;;
17235;SDS011;8734;59.272;17.780;2023-09-19T14:52:35;2.57;;;1.00;;
17235;SDS011;8734;59.272;17.780;2023-09-19T14:55:04;10.43;;;1.17;;
17235;SDS011;8734;59.272;17.780;2023-09-19T14:57:35;3.83;;;0.90;;
17235;SDS011;8734;59.272;17.780;2023-09-19T15:00:06;5.93;;;1.27;;
17235;SDS011;8734;59.272;17.780;2023-09-19T15:02:38;3.23;;;0.80;;
17235;SDS011;8734;59.272;17.780;2023-09-19T15:05:08;2.70;;;1.10;;
17235;SDS011;8734;59.272;17.780;2023-09-19T15:07:37;3.07;;;1.00;;
17235;SDS011;8734;59.272;17.780;2023-09-19T15:10:07;5.67;;;1.20;;
17235;SDS011;8734;59.272;17.780;2023-09-19T15:12:36;8.17;;;1.30;;
17235;SDS011;8734;59.272;17.780;2023-09-19T15:15:06;2.50;;;0.80;;